sensor_id;sensor_type;location;lat;lon;timestamp;pressure;altitude;pressure_sealevel;temperature;humidity
49072;BME280;52656;52.610;10.236;2023-08-07T00:00:14;100069.31;;;15.93;100.00
49072;BME280;52656;52.610;10.236;2023-08-07T00:02:39;100072.13;;;15.92;100.00
49072;BME280;52656;52.610;10.236;2023-08-07T00:05:05;100075.00;;;15.89;100.00
49072;BME280;52656;52.610;10.236;2023-08-07T00:07:31;100080.78;;;15.83;100.00
49072;BME280;52656;52.610;10.236;2023-08-07T00:09:56;100082.41;;;15.85;100.00
49072;BME280;52656;52.610;10.236;2023-08-07T00:12:22;100076.19;;;15.85;100.00
49072;BME280;52656;52.610;10.236;2023-08-07T00:14:48;100083.97;;;15.88;100.00
49072;BME280;52656;52.610;10.236;2023-08-07T00:17:15;100079.81;;;15.84;100.00
49072;BME280;52656;52.610;10.236;2023-08-07T00:19:40;100079.44;;;15.77;100.00
49072;BME280;52656;52.610;10.236;2023-08-07T00:22:06;100083.38;;;15.71;100.00
49072;BME280;52656;52.610;10.236;2023-08-07T00:24:31;100080.16;;;15.66;100.00
49072;BME280;52656;52.610;10.236;2023-08-07T00:26:56;100074.19;;;15.63;100.00
49072;BME280;52656;52.610;10.236;2023-08-07T00:29:21;100080.81;;;15.57;100.00
49072;BME280;52656;52.610;10.236;2023-08-07T00:31:47;100072.19;;;15.54;100.00
49072;BME280;52656;52.610;10.236;2023-08-07T00:34:12;100074.63;;;15.44;100.00
49072;BME280;52656;52.610;10.236;2023-08-07T00:36:37;100066.34;;;15.36;100.00
49072;BME280;52656;52.610;10.236;2023-08-07T00:39:02;100073.03;;;15.29;100.00
49072;BME280;52656;52.610;10.236;2023-08-07T00:41:29;100076.69;;;15.28;100.00
49072;BME280;52656;52.610;10.236;2023-08-07T00:43:54;100084.88;;;15.24;100.00
49072;BME280;52656;52.610;10.236;2023-08-07T00:46:19;100083.91;;;15.25;100.00
49072;BME280;52656;52.610;10.236;2023-08-07T00:48:44;100081.50;;;15.22;100.00
49072;BME280;52656;52.610;10.236;2023-08-07T00:51:10;100074.44;;;15.21;100.00
49072;BME280;52656;52.610;10.236;2023-08-07T00:53:38;100070.91;;;15.21;100.00
49072;BME280;52656;52.610;10.236;2023-08-07T00:56:04;100070.59;;;15.13;100.00
49072;BME280;52656;52.610;10.236;2023-08-07T00:58:30;100079.34;;;15.15;100.00
49072;BME280;52656;52.610;10.236;2023-08-07T01:00:56;100071.00;;;15.07;100.00
49072;BME280;52656;52.610;10.236;2023-08-07T01:03:21;100080.72;;;15.08;100.00
49072;BME280;52656;52.610;10.236;2023-08-07T01:05:46;100074.22;;;14.99;100.00
49072;BME280;52656;52.610;10.236;2023-08-07T01:08:12;100084.00;;;14.98;100.00
49072;BME280;52656;52.610;10.236;2023-08-07T01:10:50;100086.06;;;14.95;100.00
49072;BME280;52656;52.610;10.236;2023-08-07T01:13:28;100088.38;;;14.87;100.00
49072;BME280;52656;52.610;10.236;2023-08-07T01:16:01;100085.41;;;14.91;100.00
49072;BME280;52656;52.610;10.236;2023-08-07T01:18:29;100078.38;;;14.90;100.00
49072;BME280;52656;52.610;10.236;2023-08-07T01:20:55;100070.16;;;14.93;100.00
49072;BME280;52656;52.610;10.236;2023-08-07T01:23:20;100068.16;;;14.70;100.00
49072;BME280;52656;52.610;10.236;2023-08-07T01:25:46;100073.97;;;14.89;100.00
49072;BME280;52656;52.610;10.236;2023-08-07T01:28:15;100070.47;;;14.89;100.00
49072;BME280;52656;52.610;10.236;2023-08-07T01:30:47;100073.97;;;14.89;100.00
49072;BME280;52656;52.610;10.236;2023-08-07T01:35:44;100068.91;;;14.99;100.00
49072;BME280;52656;52.610;10.236;2023-08-07T01:38:11;100063.56;;;14.99;100.00
49072;BME280;52656;52.610;10.236;2023-08-07T01:40:39;100063.22;;;14.91;100.00
49072;BME280;52656;52.610;10.236;2023-08-07T01:43:04;100052.56;;;15.04;100.00
49072;BME280;52656;52.610;10.236;2023-08-07T01:45:30;100059.06;;;14.99;100.00
49072;BME280;52656;52.610;10.236;2023-08-07T01:47:55;100066.00;;;15.02;100.00
49072;BME280;52656;52.610;10.236;2023-08-07T01:50:21;100055.44;;;15.13;100.00
49072;BME280;52656;52.610;10.236;2023-08-07T01:52:47;100060.78;;;15.13;100.00
49072;BME280;52656;52.610;10.236;2023-08-07T01:55:16;100060.88;;;15.12;100.00
49072;BME280;52656;52.610;10.236;2023-08-07T01:57:41;100056.72;;;15.20;100.00
49072;BME280;52656;52.610;10.236;2023-08-07T02:00:07;100058.44;;;15.21;100.00
49072;BME280;52656;52.610;10.236;2023-08-07T02:02:33;100058.84;;;15.28;100.00
49072;BME280;52656;52.610;10.236;2023-08-07T02:04:58;100052.88;;;15.24;100.00
49072;BME280;52656;52.610;10.236;2023-08-07T02:07:24;100053.31;;;15.18;100.00
49072;BME280;52656;52.610;10.236;2023-08-07T02:09:49;100051.28;;;15.22;100.00
49072;BME280;52656;52.610;10.236;2023-08-07T02:12:15;100057.03;;;15.29;100.00
49072;BME280;52656;52.610;10.236;2023-08-07T02:14:40;100057.03;;;15.29;100.00
49072;BME280;52656;52.610;10.236;2023-08-07T02:17:05;100050.19;;;15.24;100.00
49072;BME280;52656;52.610;10.236;2023-08-07T02:19:31;100055.66;;;15.23;100.00
49072;BME280;52656;52.610;10.236;2023-08-07T02:21:57;100059.91;;;15.25;100.00
49072;BME280;52656;52.610;10.236;2023-08-07T02:24:22;100057.16;;;15.27;100.00
49072;BME280;52656;52.610;10.236;2023-08-07T02:26:47;100057.69;;;15.32;100.00
49072;BME280;52656;52.610;10.236;2023-08-07T02:29:12;100059.59;;;15.30;100.00
49072;BME280;52656;52.610;10.236;2023-08-07T02:31:38;100062.91;;;15.34;100.00
49072;BME280;52656;52.610;10.236;2023-08-07T02:34:03;100060.16;;;15.22;100.00
49072;BME280;52656;52.610;10.236;2023-08-07T02:36:28;100060.13;;;15.35;100.00
49072;BME280;52656;52.610;10.236;2023-08-07T02:38:53;100066.53;;;15.33;100.00
49072;BME280;52656;52.610;10.236;2023-08-07T02:41:19;100071.53;;;15.37;100.00
49072;BME280;52656;52.610;10.236;2023-08-07T02:43:44;100065.03;;;15.41;100.00
49072;BME280;52656;52.610;10.236;2023-08-07T02:46:09;100069.59;;;15.39;100.00
49072;BME280;52656;52.610;10.236;2023-08-07T02:48:34;100074.94;;;15.39;100.00
49072;BME280;52656;52.610;10.236;2023-08-07T02:51:00;100068.44;;;15.43;100.00
49072;BME280;52656;52.610;10.236;2023-08-07T02:53:25;100071.13;;;15.31;100.00
49072;BME280;52656;52.610;10.236;2023-08-07T02:55:50;100076.75;;;15.39;100.00
49072;BME280;52656;52.610;10.236;2023-08-07T02:58:15;100082.63;;;15.44;100.00
49072;BME280;52656;52.610;10.236;2023-08-07T03:00:41;100078.19;;;15.44;100.00
49072;BME280;52656;52.610;10.236;2023-08-07T03:03:06;100081.91;;;15.42;100.00
49072;BME280;52656;52.610;10.236;2023-08-07T03:05:31;100067.91;;;15.25;100.00
49072;BME280;52656;52.610;10.236;2023-08-07T03:07:56;100082.88;;;15.41;100.00
49072;BME280;52656;52.610;10.236;2023-08-07T03:10:22;100071.44;;;15.39;100.00
49072;BME280;52656;52.610;10.236;2023-08-07T03:12:47;100076.03;;;15.37;100.00
49072;BME280;52656;52.610;10.236;2023-08-07T03:15:12;100078.81;;;15.35;100.00
49072;BME280;52656;52.610;10.236;2023-08-07T03:17:37;100075.91;;;15.38;100.00
49072;BME280;52656;52.610;10.236;2023-08-07T03:20:03;100071.75;;;15.34;100.00
49072;BME280;52656;52.610;10.236;2023-08-07T03:22:29;100077.63;;;15.39;100.00
49072;BME280;52656;52.610;10.236;2023-08-07T03:24:54;100079.75;;;15.34;100.00
49072;BME280;52656;52.610;10.236;2023-08-07T03:27:19;100087.34;;;15.28;100.00
49072;BME280;52656;52.610;10.236;2023-08-07T03:29:44;100086.50;;;15.27;100.00
49072;BME280;52656;52.610;10.236;2023-08-07T03:32:10;100094.81;;;15.22;100.00
49072;BME280;52656;52.610;10.236;2023-08-07T03:34:35;100090.22;;;15.37;100.00
49072;BME280;52656;52.610;10.236;2023-08-07T03:37:01;100088.41;;;15.38;100.00
49072;BME280;52656;52.610;10.236;2023-08-07T03:39:26;100084.16;;;15.35;100.00
49072;BME280;52656;52.610;10.236;2023-08-07T03:41:51;100082.34;;;15.36;100.00
49072;BME280;52656;52.610;10.236;2023-08-07T03:44:16;100083.50;;;15.32;100.00
49072;BME280;52656;52.610;10.236;2023-08-07T03:46:42;100096.31;;;15.27;100.00
49072;BME280;52656;52.610;10.236;2023-08-07T03:49:07;100094.19;;;15.32;100.00
49072;BME280;52656;52.610;10.236;2023-08-07T03:51:32;100099.53;;;15.32;100.00
49072;BME280;52656;52.610;10.236;2023-08-07T03:53:58;100096.31;;;15.27;100.00
49072;BME280;52656;52.610;10.236;2023-08-07T03:56:23;100095.56;;;15.12;100.00
49072;BME280;52656;52.610;10.236;2023-08-07T03:58:48;100083.84;;;15.27;100.00
49072;BME280;52656;52.610;10.236;2023-08-07T04:01:15;100094.06;;;15.33;100.00
49072;BME280;52656;52.610;10.236;2023-08-07T04:03:40;100096.75;;;15.33;100.00
49072;BME280;52656;52.610;10.236;2023-08-07T04:06:05;100100.16;;;15.35;100.00
49072;BME280;52656;52.610;10.236;2023-08-07T04:08:31;100097.25;;;15.38;100.00
49072;BME280;52656;52.610;10.236;2023-08-07T04:11:05;100097.69;;;15.45;100.00
49072;BME280;52656;52.610;10.236;2023-08-07T04:13:31;100098.75;;;15.42;100.00
49072;BME280;52656;52.610;10.236;2023-08-07T04:15:56;100098.97;;;15.39;100.00
49072;BME280;52656;52.610;10.236;2023-08-07T04:18:22;100096.41;;;15.38;100.00
49072;BME280;52656;52.610;10.236;2023-08-07T04:20:51;100112.44;;;15.38;100.00
49072;BME280;52656;52.610;10.236;2023-08-07T04:23:17;100113.50;;;15.35;100.00
49072;BME280;52656;52.610;10.236;2023-08-07T04:25:42;100106.88;;;15.15;100.00
49072;BME280;52656;52.610;10.236;2023-08-07T04:28:08;100105.91;;;15.16;100.00
49072;BME280;52656;52.610;10.236;2023-08-07T04:30:34;100109.66;;;15.14;100.00
49072;BME280;52656;52.610;10.236;2023-08-07T04:32:59;100104.63;;;15.09;100.00
49072;BME280;52656;52.610;10.236;2023-08-07T04:35:24;100111.03;;;15.07;100.00
49072;BME280;52656;52.610;10.236;2023-08-07T04:37:49;100117.75;;;14.99;100.00
49072;BME280;52656;52.610;10.236;2023-08-07T04:40:15;100130.97;;;15.01;100.00
49072;BME280;52656;52.610;10.236;2023-08-07T04:42:40;100131.94;;;15.00;100.00
49072;BME280;52656;52.610;10.236;2023-08-07T04:45:06;100131.81;;;15.02;100.00
49072;BME280;52656;52.610;10.236;2023-08-07T04:47:31;100135.47;;;15.01;100.00
49072;BME280;52656;52.610;10.236;2023-08-07T04:49:56;100138.84;;;15.03;100.00
49072;BME280;52656;52.610;10.236;2023-08-07T04:52:21;100136.72;;;14.95;100.00
49072;BME280;52656;52.610;10.236;2023-08-07T04:54:47;100141.41;;;14.91;100.00
49072;BME280;52656;52.610;10.236;2023-08-07T04:57:12;100140.44;;;14.92;100.00
49072;BME280;52656;52.610;10.236;2023-08-07T04:59:37;100141.53;;;14.90;100.00
49072;BME280;52656;52.610;10.236;2023-08-07T05:02:02;100140.56;;;14.91;100.00
49072;BME280;52656;52.610;10.236;2023-08-07T05:04:28;100143.00;;;14.94;100.00
49072;BME280;52656;52.610;10.236;2023-08-07T05:06:53;100146.56;;;14.94;100.00
49072;BME280;52656;52.610;10.236;2023-08-07T05:09:18;100146.78;;;15.04;100.00
49072;BME280;52656;52.610;10.236;2023-08-07T05:11:44;100143.16;;;15.05;100.00
49072;BME280;52656;52.610;10.236;2023-08-07T05:14:09;100153.81;;;15.05;100.00
49072;BME280;52656;52.610;10.236;2023-08-07T05:16:35;100139.31;;;15.09;100.00
49072;BME280;52656;52.610;10.236;2023-08-07T05:19:00;100137.69;;;15.07;100.00
49072;BME280;52656;52.610;10.236;2023-08-07T05:21:25;100155.31;;;15.09;100.00
49072;BME280;52656;52.610;10.236;2023-08-07T05:23:50;100148.06;;;15.11;100.00
49072;BME280;52656;52.610;10.236;2023-08-07T05:26:20;100149.16;;;15.21;100.00
49072;BME280;52656;52.610;10.236;2023-08-07T05:28:45;100158.00;;;15.22;100.00
49072;BME280;52656;52.610;10.236;2023-08-07T05:31:10;100162.38;;;15.23;100.00
49072;BME280;52656;52.610;10.236;2023-08-07T05:33:35;100160.22;;;15.15;100.00
49072;BME280;52656;52.610;10.236;2023-08-07T05:36:01;100161.38;;;15.11;100.00
49072;BME280;52656;52.610;10.236;2023-08-07T05:38:26;100163.97;;;15.13;100.00
49072;BME280;52656;52.610;10.236;2023-08-07T05:40:52;100163.00;;;15.14;100.00
49072;BME280;52656;52.610;10.236;2023-08-07T05:43:17;100173.38;;;15.18;100.00
49072;BME280;52656;52.610;10.236;2023-08-07T05:45:42;100172.72;;;15.15;100.00
49072;BME280;52656;52.610;10.236;2023-08-07T05:48:10;100178.16;;;15.13;100.00
49072;BME280;52656;52.610;10.236;2023-08-07T05:50:35;100182.16;;;14.93;100.00
49072;BME280;52656;52.610;10.236;2023-08-07T05:53:00;100176.84;;;15.06;100.00
49072;BME280;52656;52.610;10.236;2023-08-07T05:55:25;100181.00;;;14.97;100.00
49072;BME280;52656;52.610;10.236;2023-08-07T05:57:51;100163.63;;;15.05;100.00
49072;BME280;52656;52.610;10.236;2023-08-07T06:00:16;100155.19;;;14.98;100.00
49072;BME280;52656;52.610;10.236;2023-08-07T06:02:44;100163.81;;;15.02;100.00
49072;BME280;52656;52.610;10.236;2023-08-07T06:05:09;100160.28;;;14.88;100.00
49072;BME280;52656;52.610;10.236;2023-08-07T06:07:37;100161.06;;;15.16;100.00
49072;BME280;52656;52.610;10.236;2023-08-07T06:10:02;100158.41;;;15.16;100.00
49072;BME280;52656;52.610;10.236;2023-08-07T06:12:28;100160.91;;;15.32;100.00
49072;BME280;52656;52.610;10.236;2023-08-07T06:14:53;100154.78;;;15.30;100.00
49072;BME280;52656;52.610;10.236;2023-08-07T06:17:18;100167.59;;;15.24;100.00
49072;BME280;52656;52.610;10.236;2023-08-07T06:19:43;100174.34;;;15.17;100.00
49072;BME280;52656;52.610;10.236;2023-08-07T06:22:09;100167.19;;;15.31;100.00
49072;BME280;52656;52.610;10.236;2023-08-07T06:24:34;100167.19;;;15.43;100.00
49072;BME280;52656;52.610;10.236;2023-08-07T06:26:59;100172.97;;;15.63;100.00
49072;BME280;52656;52.610;10.236;2023-08-07T06:29:24;100177.03;;;15.68;100.00
49072;BME280;52656;52.610;10.236;2023-08-07T06:31:50;100179.56;;;15.70;100.00
49072;BME280;52656;52.610;10.236;2023-08-07T06:34:15;100178.50;;;15.60;100.00
49072;BME280;52656;52.610;10.236;2023-08-07T06:36:40;100187.69;;;15.56;100.00
49072;BME280;52656;52.610;10.236;2023-08-07T06:39:05;100185.34;;;15.51;100.00
49072;BME280;52656;52.610;10.236;2023-08-07T06:41:31;100186.84;;;15.42;100.00
49072;BME280;52656;52.610;10.236;2023-08-07T06:43:56;100188.31;;;15.34;100.00
49072;BME280;52656;52.610;10.236;2023-08-07T06:46:21;100181.28;;;15.33;100.00
49072;BME280;52656;52.610;10.236;2023-08-07T06:48:51;100185.47;;;15.49;100.00
49072;BME280;52656;52.610;10.236;2023-08-07T06:51:16;100191.78;;;15.74;100.00
49072;BME280;52656;52.610;10.236;2023-08-07T06:53:42;100190.09;;;15.86;100.00
49072;BME280;52656;52.610;10.236;2023-08-07T06:56:07;100182.06;;;15.86;100.00
49072;BME280;52656;52.610;10.236;2023-08-07T06:58:32;100185.88;;;16.07;100.00
49072;BME280;52656;52.610;10.236;2023-08-07T07:00:58;100182.34;;;16.07;100.00
49072;BME280;52656;52.610;10.236;2023-08-07T07:03:23;100189.50;;;16.19;100.00
49072;BME280;52656;52.610;10.236;2023-08-07T07:05:49;100190.88;;;16.48;100.00
49072;BME280;52656;52.610;10.236;2023-08-07T07:08:14;100178.31;;;16.74;100.00
49072;BME280;52656;52.610;10.236;2023-08-07T07:10:39;100191.81;;;16.60;100.00
49072;BME280;52656;52.610;10.236;2023-08-07T07:13:05;100188.81;;;16.28;100.00
49072;BME280;52656;52.610;10.236;2023-08-07T07:15:30;100187.31;;;16.61;100.00
49072;BME280;52656;52.610;10.236;2023-08-07T07:17:55;100189.13;;;16.60;100.00
49072;BME280;52656;52.610;10.236;2023-08-07T07:20:21;100190.94;;;16.96;100.00
49072;BME280;52656;52.610;10.236;2023-08-07T07:22:46;100201.00;;;16.93;100.00
49072;BME280;52656;52.610;10.236;2023-08-07T07:25:11;100199.75;;;17.10;100.00
49072;BME280;52656;52.610;10.236;2023-08-07T07:27:38;100204.41;;;17.30;100.00
49072;BME280;52656;52.610;10.236;2023-08-07T07:30:04;100203.34;;;17.33;100.00
49072;BME280;52656;52.610;10.236;2023-08-07T07:32:30;100203.56;;;17.30;100.00
49072;BME280;52656;52.610;10.236;2023-08-07T07:34:55;100204.53;;;17.29;100.00
49072;BME280;52656;52.610;10.236;2023-08-07T07:37:20;100205.50;;;17.63;98.61
49072;BME280;52656;52.610;10.236;2023-08-07T07:39:46;100206.16;;;18.00;96.68
49072;BME280;52656;52.610;10.236;2023-08-07T07:42:11;100203.69;;;18.19;94.73
49072;BME280;52656;52.610;10.236;2023-08-07T07:44:36;100212.97;;;18.26;93.94
49072;BME280;52656;52.610;10.236;2023-08-07T07:47:04;100214.78;;;17.92;94.09
49072;BME280;52656;52.610;10.236;2023-08-07T07:49:30;100210.38;;;17.80;94.42
49072;BME280;52656;52.610;10.236;2023-08-07T07:51:55;100218.56;;;18.01;92.38
49072;BME280;52656;52.610;10.236;2023-08-07T07:54:20;100214.69;;;20.19;79.86
49072;BME280;52656;52.610;10.236;2023-08-07T07:56:46;100217.25;;;19.16;80.77
49072;BME280;52656;52.610;10.236;2023-08-07T07:59:12;100225.13;;;18.64;88.48
49072;BME280;52656;52.610;10.236;2023-08-07T08:01:38;100224.53;;;18.16;90.60
49072;BME280;52656;52.610;10.236;2023-08-07T08:04:03;100241.13;;;17.98;90.13
49072;BME280;52656;52.610;10.236;2023-08-07T08:06:29;100242.91;;;17.98;90.13
49072;BME280;52656;52.610;10.236;2023-08-07T08:08:56;100248.06;;;17.90;91.08
49072;BME280;52656;52.610;10.236;2023-08-07T08:11:21;100236.72;;;17.97;89.64
49072;BME280;52656;52.610;10.236;2023-08-07T08:13:46;100232.69;;;18.25;88.31
49072;BME280;52656;52.610;10.236;2023-08-07T08:16:11;100229.19;;;18.91;84.29
49072;BME280;52656;52.610;10.236;2023-08-07T08:18:37;100240.50;;;19.38;80.67
49072;BME280;52656;52.610;10.236;2023-08-07T08:21:02;100235.56;;;20.96;73.54
49072;BME280;52656;52.610;10.236;2023-08-07T08:23:27;100222.09;;;23.11;63.48
49072;BME280;52656;52.610;10.236;2023-08-07T08:25:53;100217.81;;;24.48;56.79
49072;BME280;52656;52.610;10.236;2023-08-07T08:28:18;100210.50;;;27.82;47.98
49072;BME280;52656;52.610;10.236;2023-08-07T08:30:43;100212.13;;;29.08;44.06
49072;BME280;52656;52.610;10.236;2023-08-07T08:33:09;100210.44;;;29.29;43.94
49072;BME280;52656;52.610;10.236;2023-08-07T08:35:37;100216.00;;;28.63;45.25
49072;BME280;52656;52.610;10.236;2023-08-07T08:38:03;100228.47;;;25.25;51.39
49072;BME280;52656;52.610;10.236;2023-08-07T08:40:28;100212.13;;;24.76;53.65
49072;BME280;52656;52.610;10.236;2023-08-07T08:42:55;100221.09;;;24.00;55.58
49072;BME280;52656;52.610;10.236;2023-08-07T08:45:23;100223.84;;;22.85;58.21
49072;BME280;52656;52.610;10.236;2023-08-07T08:47:51;100234.22;;;22.24;61.61
49072;BME280;52656;52.610;10.236;2023-08-07T08:50:20;100245.63;;;21.52;63.86
49072;BME280;52656;52.610;10.236;2023-08-07T08:52:45;100242.94;;;20.44;68.00
49072;BME280;52656;52.610;10.236;2023-08-07T08:55:12;100243.44;;;20.78;67.58
49072;BME280;52656;52.610;10.236;2023-08-07T08:57:39;100248.59;;;20.91;65.86
49072;BME280;52656;52.610;10.236;2023-08-07T09:00:08;100255.13;;;20.98;65.21
49072;BME280;52656;52.610;10.236;2023-08-07T09:02:52;100262.22;;;21.28;63.87
49072;BME280;52656;52.610;10.236;2023-08-07T09:05:19;100261.94;;;21.41;62.66
49072;BME280;52656;52.610;10.236;2023-08-07T09:07:48;100265.03;;;21.75;61.37
49072;BME280;52656;52.610;10.236;2023-08-07T09:10:14;100258.31;;;22.08;60.10
49072;BME280;52656;52.610;10.236;2023-08-07T09:12:51;100255.63;;;22.08;59.60
49072;BME280;52656;52.610;10.236;2023-08-07T09:15:19;100243.59;;;22.40;58.34
49072;BME280;52656;52.610;10.236;2023-08-07T09:17:45;100255.56;;;22.55;57.55
49072;BME280;52656;52.610;10.236;2023-08-07T09:20:11;100260.75;;;22.39;57.85
49072;BME280;52656;52.610;10.236;2023-08-07T09:22:37;100257.97;;;23.03;56.58
49072;BME280;52656;52.610;10.236;2023-08-07T09:25:03;100246.66;;;23.62;54.15
49072;BME280;52656;52.610;10.236;2023-08-07T09:27:29;100250.59;;;23.85;53.50
49072;BME280;52656;52.610;10.236;2023-08-07T09:29:55;100254.38;;;25.11;49.41
49072;BME280;52656;52.610;10.236;2023-08-07T09:32:21;100256.13;;;25.53;47.57
49072;BME280;52656;52.610;10.236;2023-08-07T09:34:49;100253.41;;;24.36;48.91
49072;BME280;52656;52.610;10.236;2023-08-07T09:37:15;100264.44;;;24.42;50.46
49072;BME280;52656;52.610;10.236;2023-08-07T09:39:41;100271.56;;;23.47;50.82
49072;BME280;52656;52.610;10.236;2023-08-07T09:42:16;100260.19;;;24.05;50.96
49072;BME280;52656;52.610;10.236;2023-08-07T09:44:42;100265.53;;;25.08;48.92
49072;BME280;52656;52.610;10.236;2023-08-07T09:47:15;100264.59;;;26.46;46.07
49072;BME280;52656;52.610;10.236;2023-08-07T09:49:42;100261.69;;;26.48;45.13
49072;BME280;52656;52.610;10.236;2023-08-07T09:52:09;100251.22;;;27.53;43.60
49072;BME280;52656;52.610;10.236;2023-08-07T09:54:35;100251.72;;;26.48;45.53
49072;BME280;52656;52.610;10.236;2023-08-07T09:57:01;100256.78;;;25.22;47.82
49072;BME280;52656;52.610;10.236;2023-08-07T09:59:27;100266.69;;;24.47;50.13
49072;BME280;52656;52.610;10.236;2023-08-07T10:01:54;100272.38;;;23.66;53.76
49072;BME280;52656;52.610;10.236;2023-08-07T10:04:21;100289.53;;;23.03;56.05
49072;BME280;52656;52.610;10.236;2023-08-07T10:06:47;100289.81;;;22.54;57.90
49072;BME280;52656;52.610;10.236;2023-08-07T10:09:12;100289.50;;;22.11;59.45
49072;BME280;52656;52.610;10.236;2023-08-07T10:11:38;100285.06;;;22.29;59.18
49072;BME280;52656;52.610;10.236;2023-08-07T10:14:05;100283.63;;;23.97;54.37
49072;BME280;52656;52.610;10.236;2023-08-07T10:16:31;100272.34;;;24.70;52.83
49072;BME280;52656;52.610;10.236;2023-08-07T10:18:57;100269.00;;;25.35;51.94
49072;BME280;52656;52.610;10.236;2023-08-07T10:21:24;100266.06;;;24.53;52.16
49072;BME280;52656;52.610;10.236;2023-08-07T10:23:53;100268.94;;;23.20;54.91
49072;BME280;52656;52.610;10.236;2023-08-07T10:26:20;100275.41;;;22.64;57.82
49072;BME280;52656;52.610;10.236;2023-08-07T10:28:48;100271.28;;;22.32;57.76
49072;BME280;52656;52.610;10.236;2023-08-07T10:31:15;100273.16;;;22.87;56.53
49072;BME280;52656;52.610;10.236;2023-08-07T10:33:41;100270.53;;;23.84;53.87
49072;BME280;52656;52.610;10.236;2023-08-07T10:36:11;100273.03;;;24.03;51.75
49072;BME280;52656;52.610;10.236;2023-08-07T10:38:36;100284.63;;;22.89;54.62
49072;BME280;52656;52.610;10.236;2023-08-07T10:41:07;100304.84;;;22.10;58.58
49072;BME280;52656;52.610;10.236;2023-08-07T10:43:43;100318.22;;;21.34;59.49
49072;BME280;52656;52.610;10.236;2023-08-07T10:46:14;100327.69;;;20.90;60.15
49072;BME280;52656;52.610;10.236;2023-08-07T10:48:40;100320.50;;;21.29;58.48
49072;BME280;52656;52.610;10.236;2023-08-07T10:51:06;100330.38;;;20.90;60.72
49072;BME280;52656;52.610;10.236;2023-08-07T10:53:35;100341.06;;;20.40;60.63
49072;BME280;52656;52.610;10.236;2023-08-07T10:56:03;100353.38;;;20.00;62.41
49072;BME280;52656;52.610;10.236;2023-08-07T10:58:34;100365.84;;;19.81;63.48
49072;BME280;52656;52.610;10.236;2023-08-07T11:04:00;100347.97;;;19.79;64.63
49072;BME280;52656;52.610;10.236;2023-08-07T11:06:31;100349.91;;;20.10;64.22
49072;BME280;52656;52.610;10.236;2023-08-07T11:09:02;100345.63;;;20.07;63.05
49072;BME280;52656;52.610;10.236;2023-08-07T11:11:42;100349.91;;;20.92;61.66
49072;BME280;52656;52.610;10.236;2023-08-07T11:14:09;100352.09;;;21.08;60.56
49072;BME280;52656;52.610;10.236;2023-08-07T11:16:35;100324.94;;;20.80;60.07
49072;BME280;52656;52.610;10.236;2023-08-07T11:19:00;100333.91;;;20.90;59.71
49072;BME280;52656;52.610;10.236;2023-08-07T11:21:26;100342.47;;;21.34;60.30
49072;BME280;52656;52.610;10.236;2023-08-07T11:23:51;100337.72;;;21.76;59.03
49072;BME280;52656;52.610;10.236;2023-08-07T11:26:17;100337.06;;;22.21;55.22
49072;BME280;52656;52.610;10.236;2023-08-07T11:28:42;100343.00;;;22.25;54.58
49072;BME280;52656;52.610;10.236;2023-08-07T11:31:08;100349.66;;;22.50;54.26
49072;BME280;52656;52.610;10.236;2023-08-07T11:33:35;100348.84;;;22.11;54.90
49072;BME280;52656;52.610;10.236;2023-08-07T11:36:01;100338.56;;;21.67;56.83
49072;BME280;52656;52.610;10.236;2023-08-07T11:38:39;100329.69;;;21.07;57.29
49072;BME280;52656;52.610;10.236;2023-08-07T11:41:06;100337.91;;;21.15;58.37
49072;BME280;52656;52.610;10.236;2023-08-07T11:43:36;100334.97;;;21.18;57.28
49072;BME280;52656;52.610;10.236;2023-08-07T11:46:06;100330.91;;;21.72;56.36
49072;BME280;52656;52.610;10.236;2023-08-07T11:48:37;100319.31;;;22.19;53.85
49072;BME280;52656;52.610;10.236;2023-08-07T11:51:04;100333.16;;;21.87;54.19
49072;BME280;52656;52.610;10.236;2023-08-07T11:53:32;100340.88;;;21.02;55.77
49072;BME280;52656;52.610;10.236;2023-08-07T11:56:02;100337.31;;;21.02;55.41
49072;BME280;52656;52.610;10.236;2023-08-07T11:58:35;100348.03;;;21.42;56.42
49072;BME280;52656;52.610;10.236;2023-08-07T12:01:04;100353.16;;;21.74;55.34
49072;BME280;52656;52.610;10.236;2023-08-07T12:03:36;100351.13;;;21.47;54.43
49072;BME280;52656;52.610;10.236;2023-08-07T12:06:07;100345.81;;;21.67;53.21
49072;BME280;52656;52.610;10.236;2023-08-07T12:08:37;100342.97;;;21.68;51.62
49072;BME280;52656;52.610;10.236;2023-08-07T12:11:08;100343.63;;;21.61;52.38
49072;BME280;52656;52.610;10.236;2023-08-07T12:13:37;100346.00;;;21.25;53.34
49072;BME280;52656;52.610;10.236;2023-08-07T12:16:02;100348.44;;;20.88;54.00
49072;BME280;52656;52.610;10.236;2023-08-07T12:18:31;100347.25;;;20.71;54.97
49072;BME280;52656;52.610;10.236;2023-08-07T12:20:59;100353.66;;;21.10;54.86
49072;BME280;52656;52.610;10.236;2023-08-07T12:23:24;100346.22;;;21.82;52.44
49072;BME280;52656;52.610;10.236;2023-08-07T12:25:50;100379.69;;;21.69;51.85
49072;BME280;52656;52.610;10.236;2023-08-07T12:28:17;100404.53;;;20.10;63.26
49072;BME280;52656;52.610;10.236;2023-08-07T12:30:45;100403.88;;;20.39;61.18
49072;BME280;52656;52.610;10.236;2023-08-07T12:33:12;100408.50;;;20.78;60.64